Aviation Digital Data Service (ADDS)

Output produced by TAFs form (1401 UTC 29 August 2014)
found at http://aviationweather.gov/adds/tafs/
 
KPUB 291120Z 2912/3012 28006KT P6SM SKC 
     FM292100 12008KT P6SM SCT090 SCT150 
     FM300300 03007KT P6SM SCT130 SCT200